Terminal Aerodrome Forecast
Issued by NWS

Home | Current Version | Previous Version | Text Only | Print | Product List | Glossary On
Versions: 1 2 3 4 5 6 7 8 9 10 11 12 13 14 15 16 17 18 19 20 21 22 23 24 25 26 27 28 29 30 31 32 33 34 35 36 37 38 39 40 41 42 43 44 45 46 47 48 49 50
000
FTUS45 KBOU 261740
TAFBJC
TAF
KBJC 261740Z 2618/2718 34006KT P6SM SCT070 BKN120
     FM262000 05007KT P6SM VCSH SCT050 SCT070 BKN120
      TEMPO 2621/2701 VRB20G38KT -TSRA BKN070CB
     FM270200 30009KT P6SM SCT080 BKN120
     FM270400 24007KT P6SM FEW120 BKN200
     FM270900 04007KT P6SM FEW120 SCT200
     FM271300 06008KT P6SM FEW025 SCT040 BKN060
      TEMPO 2712/2716 SCT020 BKN030=

USA.gov is the U.S. government's official web portal to all federal, state and local government web resources and services.